createdAt,value
2023-01-02T00:00:30.253Z,14.50
2023-01-02T00:05:31.713Z,14.85
2023-01-02T00:10:33.129Z,17.73
2023-01-02T00:15:34.625Z,15.57
2023-01-02T00:20:36.056Z,15.52
2023-01-02T00:25:37.589Z,17.23
2023-01-02T00:30:39.256Z,15.43
2023-01-02T00:35:40.758Z,13.52
2023-01-02T00:40:42.360Z,13.05
2023-01-02T00:45:43.909Z,17.33
2023-01-02T00:50:45.414Z,11.93
2023-01-02T00:55:46.991Z,12.93
2023-01-02T01:00:50.258Z,14.23
2023-01-02T01:05:51.769Z,14.63
2023-01-02T01:10:53.202Z,11.88
2023-01-02T01:15:54.677Z,13.65
2023-01-02T01:20:56.152Z,13.93
2023-01-02T01:25:57.563Z,12.75
2023-01-02T01:31:09.896Z,15.32
2023-01-02T01:36:16.029Z,11.30
2023-01-02T01:41:21.375Z,14.77
2023-01-02T01:46:43.528Z,12.68
2023-01-02T01:51:51.562Z,12.30
2023-01-02T01:57:00.543Z,12.55
2023-01-02T02:02:02.303Z,14.48
2023-01-02T02:07:04.033Z,13.48
2023-01-02T02:12:07.110Z,16.65
2023-01-02T02:17:23.332Z,18.63
2023-01-02T02:22:51.340Z,18.65
2023-01-02T02:28:30.109Z,18.42
2023-01-02T02:33:52.704Z,16.83
2023-01-02T02:39:49.631Z,17.27
2023-01-02T02:45:02.452Z,18.30
2023-01-02T02:50:44.617Z,17.15
2023-01-02T02:55:51.073Z,17.88
2023-01-02T03:01:03.033Z,17.55
2023-01-02T03:06:16.365Z,19.60
2023-01-02T03:11:18.011Z,20.88
2023-01-02T03:16:40.845Z,17.77
2023-01-02T03:21:48.293Z,19.10
2023-01-02T03:26:55.318Z,16.40
2023-01-02T03:31:59.579Z,17.67
2023-01-02T03:37:06.457Z,17.95
2023-01-02T03:42:12.088Z,17.20
2023-01-02T03:47:33.765Z,15.50
2023-01-02T03:52:35.227Z,15.75
2023-01-02T03:58:07.365Z,19.35
2023-01-02T04:03:22.103Z,18.70
2023-01-02T04:08:34.469Z,20.50
2023-01-02T04:13:47.335Z,15.93
2023-01-02T04:18:54.901Z,18.27
2023-01-02T04:24:03.110Z,19.27
2023-01-02T04:29:04.712Z,16.52
2023-01-02T04:34:10.774Z,15.07
2023-01-02T04:39:12.270Z,14.00
2023-01-02T04:44:13.768Z,16.55
2023-01-02T04:49:15.263Z,12.00
2023-01-02T04:54:16.695Z,15.55
2023-01-02T04:59:18.107Z,16.30
2023-01-02T05:04:19.642Z,15.25
2023-01-02T05:09:21.194Z,13.40
2023-01-02T05:14:22.725Z,12.90
2023-01-02T05:19:24.222Z,9.43
2023-01-02T05:24:27.002Z,9.05
2023-01-02T05:29:29.404Z,9.13
2023-01-02T05:34:30.857Z,9.65
2023-01-02T05:39:32.326Z,7.25
2023-01-02T05:44:33.774Z,14.48
2023-01-02T05:49:35.191Z,12.75
2023-01-02T05:54:36.628Z,14.43
2023-01-02T05:59:38.042Z,8.50
2023-01-02T06:04:39.513Z,7.90
2023-01-02T06:09:40.961Z,7.88
2023-01-02T06:14:42.383Z,9.88
2023-01-02T06:19:48.709Z,9.27
2023-01-02T06:24:53.386Z,9.57
2023-01-02T06:29:54.858Z,11.77
2023-01-02T06:34:56.301Z,14.20
2023-01-02T06:39:57.732Z,12.45
2023-01-02T06:44:59.180Z,13.05
2023-01-02T06:50:00.636Z,9.90
2023-01-02T06:55:02.285Z,8.55
2023-01-02T07:00:04.059Z,6.72
2023-01-02T07:05:05.945Z,7.88
2023-01-02T07:10:07.855Z,11.73
2023-01-02T07:15:09.690Z,8.30
2023-01-02T07:20:11.612Z,9.55
2023-01-02T07:25:13.013Z,8.10
2023-01-02T07:30:14.899Z,12.18
2023-01-02T07:35:16.473Z,10.50
2023-01-02T07:40:17.892Z,10.07
2023-01-02T07:45:19.356Z,10.80
2023-01-02T07:50:20.828Z,14.68
2023-01-02T07:55:22.299Z,10.05
2023-01-02T08:00:23.791Z,13.10
2023-01-02T08:05:25.213Z,12.10
2023-01-02T08:10:26.618Z,10.25
2023-01-02T08:15:28.058Z,13.23
2023-01-02T08:20:29.512Z,11.50
2023-01-02T08:25:30.954Z,12.27
2023-01-02T08:30:32.443Z,10.82
2023-01-02T08:35:38.416Z,12.98
2023-01-02T08:40:40.878Z,15.50
2023-01-02T08:45:42.361Z,17.52
2023-01-02T08:50:43.821Z,14.55
2023-01-02T08:55:45.293Z,11.90
2023-01-02T09:00:46.703Z,9.93
2023-01-02T09:05:48.201Z,10.25
2023-01-02T09:10:49.628Z,10.30
2023-01-02T09:15:51.084Z,10.85
2023-01-02T09:20:52.537Z,10.25
2023-01-02T09:26:00.626Z,9.45
2023-01-02T09:31:11.892Z,11.52
2023-01-02T09:36:16.366Z,12.48
2023-01-02T09:41:31.311Z,9.80
2023-01-02T09:46:54.262Z,11.55
2023-01-02T09:51:55.759Z,11.45
2023-01-02T09:57:03.236Z,14.85
2023-01-02T10:02:54.108Z,11.13
2023-01-02T10:08:11.027Z,10.68
2023-01-02T10:13:59.863Z,9.35
2023-01-02T10:18:56.179Z,11.77
2023-01-02T10:24:06.276Z,11.98
2023-01-02T10:29:16.175Z,11.30
2023-01-02T10:34:20.153Z,10.30
2023-01-02T10:39:25.678Z,9.63
2023-01-02T10:44:33.466Z,9.38
2023-01-02T10:49:37.798Z,8.18
2023-01-02T10:54:59.733Z,9.40
2023-01-02T11:00:04.293Z,10.50
2023-01-02T11:05:16.159Z,7.20
2023-01-02T11:10:29.836Z,10.57
2023-01-02T11:15:34.491Z,7.55
2023-01-02T11:20:37.559Z,11.43
2023-01-02T11:25:41.517Z,9.23
2023-01-02T11:30:44.093Z,14.00
2023-01-02T11:35:48.224Z,14.65
2023-01-02T11:40:58.863Z,19.42
2023-01-02T11:46:01.306Z,11.57
2023-01-02T11:51:02.807Z,9.27
2023-01-02T11:56:21.950Z,7.90
2023-01-02T12:01:54.496Z,9.77
2023-01-02T12:07:22.215Z,7.30
2023-01-02T12:12:29.674Z,9.15
2023-01-02T12:17:51.227Z,13.68
2023-01-02T12:23:11.529Z,12.52
2023-01-02T12:28:34.118Z,10.48
2023-01-02T12:33:41.609Z,10.18
2023-01-02T12:39:00.908Z,14.25
2023-01-02T12:44:16.064Z,11.35
2023-01-02T12:49:36.359Z,9.30
2023-01-02T12:55:25.152Z,10.65
2023-01-02T13:00:50.217Z,8.75
2023-01-02T13:05:57.094Z,12.77
2023-01-02T13:11:01.669Z,16.50
2023-01-02T13:16:20.928Z,9.20
2023-01-02T13:21:48.164Z,12.25
2023-01-02T13:26:51.312Z,12.77
2023-01-02T13:31:54.039Z,12.15
2023-01-02T13:37:20.841Z,12.13
2023-01-02T13:42:46.710Z,11.80
2023-01-02T13:48:20.445Z,12.07
2023-01-02T13:53:43.191Z,14.82
2023-01-02T13:58:46.536Z,14.52
2023-01-02T14:04:08.956Z,18.95
2023-01-02T14:09:11.832Z,14.82
2023-01-02T14:14:21.625Z,14.07
2023-01-02T14:19:25.769Z,21.40
2023-01-02T14:24:30.436Z,23.92
2023-01-02T14:29:40.767Z,23.00
2023-01-02T14:34:46.965Z,20.67
2023-01-02T14:39:48.614Z,19.77
2023-01-02T14:44:58.511Z,18.77
2023-01-02T14:50:03.027Z,17.35
2023-01-02T14:55:29.884Z,12.25
2023-01-02T15:00:37.540Z,14.20
2023-01-02T15:05:53.102Z,15.15
2023-01-02T15:10:55.903Z,15.73
2023-01-02T15:16:00.018Z,15.32
2023-01-02T15:21:09.100Z,12.23
2023-01-02T15:31:39.173Z,16.60
2023-01-02T15:36:41.964Z,15.07
2023-01-02T15:41:49.816Z,17.65
2023-01-02T15:46:51.561Z,19.80
2023-01-02T15:51:55.098Z,15.05
2023-01-02T15:57:05.373Z,14.43
2023-01-02T16:02:30.593Z,18.38
2023-01-02T16:07:36.722Z,16.25
2023-01-02T16:12:38.322Z,20.60
2023-01-02T16:17:40.239Z,22.33
2023-01-02T16:22:55.047Z,19.02
2023-01-02T16:28:00.678Z,23.08
2023-01-02T16:33:05.361Z,23.55
2023-01-02T16:38:21.517Z,22.13
2023-01-02T16:43:23.238Z,19.15
2023-01-02T16:48:28.368Z,19.70
2023-01-02T16:53:32.928Z,24.75
2023-01-02T16:58:34.416Z,21.08
2023-01-02T17:03:35.910Z,24.10
2023-01-02T17:08:37.341Z,24.45
2023-01-02T17:13:38.877Z,26.80
2023-01-02T17:18:40.317Z,30.25
2023-01-02T17:23:41.764Z,27.30
2023-01-02T17:28:43.261Z,19.77
2023-01-02T17:33:44.764Z,22.02
2023-01-02T17:38:46.176Z,20.05
2023-01-02T17:44:01.252Z,21.70
2023-01-02T17:49:06.608Z,24.42
2023-01-02T17:54:08.054Z,23.58
2023-01-02T17:59:09.965Z,24.42
2023-01-02T18:04:11.466Z,24.08
2023-01-02T18:09:12.977Z,24.83
2023-01-02T18:14:18.883Z,26.02
2023-01-02T18:19:23.053Z,26.98
2023-01-02T18:24:28.409Z,25.63
2023-01-02T18:29:29.977Z,27.27
2023-01-02T18:34:52.426Z,26.95
2023-01-02T18:39:56.859Z,28.10
2023-01-02T18:44:59.609Z,24.20
2023-01-02T18:50:24.206Z,25.65
2023-01-02T18:55:34.096Z,26.92
2023-01-02T19:00:40.085Z,23.73
2023-01-02T19:05:45.174Z,21.75
2023-01-02T19:10:51.197Z,15.57
2023-01-02T19:15:58.694Z,13.88
2023-01-02T19:21:09.015Z,12.93
2023-01-02T19:26:24.607Z,11.93
2023-01-02T19:31:33.967Z,12.68
2023-01-02T19:36:41.469Z,11.82
2023-01-02T19:42:01.325Z,12.90
2023-01-02T19:47:03.881Z,13.15
2023-01-02T19:52:06.482Z,11.30
2023-01-02T19:57:10.255Z,10.20
2023-01-02T20:02:13.659Z,11.93
2023-01-02T20:07:16.274Z,11.63
2023-01-02T20:12:29.950Z,16.33
2023-01-02T20:17:31.950Z,10.38
2023-01-02T20:22:33.409Z,12.85
2023-01-02T20:27:34.870Z,11.43
2023-01-02T20:32:36.550Z,13.05
2023-01-02T20:37:38.018Z,14.00
2023-01-02T20:42:39.487Z,13.52
2023-01-02T20:47:40.943Z,11.77
2023-01-02T20:52:42.413Z,11.57
2023-01-02T20:57:45.950Z,11.95
2023-01-02T21:02:50.154Z,10.40
2023-01-02T21:07:51.790Z,11.75
2023-01-02T21:13:08.224Z,14.00
2023-01-02T21:18:10.339Z,10.70
2023-01-02T21:23:12.385Z,11.60
2023-01-02T21:28:15.728Z,11.55
2023-01-02T21:33:23.224Z,12.65
2023-01-02T21:38:26.537Z,12.75
2023-01-02T21:43:28.013Z,16.05
2023-01-02T21:48:29.471Z,15.20
2023-01-02T21:53:30.940Z,14.82
2023-01-02T21:58:32.395Z,17.75
2023-01-02T22:03:34.463Z,13.85
2023-01-02T22:08:36.037Z,13.30
2023-01-02T22:13:37.492Z,11.60
2023-01-02T22:18:38.907Z,14.50
2023-01-02T22:23:40.394Z,18.65
2023-01-02T22:28:44.671Z,17.73
2023-01-02T22:33:46.187Z,16.95
2023-01-02T22:39:17.592Z,15.32
2023-01-02T22:44:13.318Z,14.85
2023-01-02T22:49:17.912Z,13.48
2023-01-02T22:54:20.238Z,12.80
2023-01-02T22:59:21.675Z,12.13
2023-01-02T23:04:24.959Z,16.67
2023-01-02T23:09:26.515Z,13.48
2023-01-02T23:14:27.955Z,12.70
2023-01-02T23:19:29.454Z,14.00
2023-01-02T23:24:34.385Z,13.43
2023-01-02T23:29:36.423Z,14.63
2023-01-02T23:34:38.190Z,13.18
2023-01-02T23:39:39.975Z,13.30
2023-01-02T23:44:41.957Z,12.30
2023-01-02T23:49:43.447Z,11.75
2023-01-02T23:54:44.883Z,12.25
2023-01-02T23:59:46.367Z,14.98
